createdAt,value
2019-04-28T00:02:24.513Z,2.53
2019-04-28T00:04:55.785Z,1.77
2019-04-28T00:07:27.092Z,1.20
2019-04-28T00:10:00.995Z,1.50
2019-04-28T00:12:32.025Z,1.23
2019-04-28T00:15:03.491Z,1.47
2019-04-28T00:17:34.414Z,1.60
2019-04-28T00:20:07.374Z,1.70
2019-04-28T00:22:45.688Z,2.13
2019-04-28T00:25:21.528Z,1.90
2019-04-28T00:27:53.710Z,2.47
2019-04-28T00:30:25.569Z,2.00
2019-04-28T00:32:56.943Z,1.87
2019-04-28T00:35:27.815Z,1.87
2019-04-28T01:03:18.059Z,1.80
2019-04-28T01:05:50.823Z,1.60
2019-04-28T01:08:22.955Z,2.07
2019-04-28T01:10:54.285Z,1.57
2019-04-28T01:13:25.588Z,1.67
2019-04-28T01:16:06.349Z,1.57
2019-04-28T01:18:46.085Z,1.60
2019-04-28T01:21:17.436Z,1.27
2019-04-28T01:23:50.038Z,1.67
2019-04-28T01:26:20.765Z,2.00
2019-04-28T01:28:52.778Z,1.60
2019-04-28T01:31:39.627Z,1.67
2019-04-28T01:34:21.928Z,1.60
2019-04-28T01:36:52.611Z,1.43
2019-04-28T01:39:24.471Z,1.53
2019-04-28T01:41:56.415Z,1.27
2019-04-28T01:44:29.218Z,1.47
2019-04-28T01:47:01.213Z,1.70
2019-04-28T01:49:32.883Z,1.47
2019-04-28T01:52:03.821Z,1.23
2019-04-28T01:54:34.765Z,1.20
2019-04-28T01:57:05.390Z,1.70
2019-04-28T01:59:36.639Z,1.53
2019-04-28T02:02:07.691Z,1.80
2019-04-28T02:04:40.199Z,1.23
2019-04-28T02:07:11.400Z,1.50
2019-04-28T02:09:42.747Z,1.20
2019-04-28T02:12:14.325Z,1.00
2019-04-28T02:14:45.015Z,1.37
2019-04-28T02:17:16.989Z,1.40
2019-04-28T02:19:48.633Z,1.40
2019-04-28T02:22:34.093Z,1.40
2019-04-28T02:25:05.272Z,1.47
2019-04-28T02:27:36.602Z,1.10
2019-04-28T02:30:11.543Z,1.03
2019-04-28T02:32:42.347Z,1.30
2019-04-28T02:35:14.435Z,1.33
2019-04-28T02:37:45.764Z,1.17
2019-04-28T02:40:16.753Z,1.10
2019-04-28T02:42:51.921Z,1.47
2019-04-28T02:45:22.288Z,1.10
2019-04-28T02:47:55.797Z,1.60
2019-04-28T02:50:45.992Z,1.20
2019-04-28T02:53:24.719Z,1.30
2019-04-28T02:55:56.066Z,1.30
2019-04-28T02:58:27.044Z,2.13
2019-04-28T03:01:06.639Z,1.23
2019-04-28T03:03:30.873Z,1.50
2019-04-28T03:06:02.037Z,0.90
2019-04-28T03:08:33.289Z,0.97
2019-04-28T03:11:04.283Z,1.17
2019-04-28T03:13:35.369Z,1.20
2019-04-28T03:16:06.815Z,1.30
2019-04-28T03:18:37.886Z,1.83
2019-04-28T03:21:11.454Z,0.90
2019-04-28T03:23:42.936Z,1.30
2019-04-28T03:26:26.491Z,1.63
2019-04-28T03:29:06.378Z,1.07
2019-04-28T03:32:14.156Z,1.40
2019-04-28T03:34:22.892Z,1.37
2019-04-28T03:36:52.011Z,1.50
2019-04-28T03:39:23.884Z,1.00
2019-04-28T03:41:55.255Z,0.93
2019-04-28T03:44:26.973Z,1.20
2019-04-28T03:47:02.755Z,1.30
2019-04-28T03:49:32.989Z,1.10
2019-04-28T03:52:06.794Z,1.10
2019-04-28T03:54:42.411Z,1.07
2019-04-28T03:57:13.657Z,0.80
2019-04-28T03:59:45.436Z,1.70
2019-04-28T04:02:16.785Z,1.20
2019-04-28T04:04:48.533Z,1.10
2019-04-28T04:07:21.661Z,1.20
2019-04-28T04:10:17.474Z,1.03
2019-04-28T04:13:17.174Z,1.27
2019-04-28T04:16:05.429Z,1.10
2019-04-28T04:18:43.853Z,1.07
2019-04-28T04:21:14.349Z,1.30
2019-04-28T04:23:45.900Z,0.90
2019-04-28T04:26:17.556Z,1.30
2019-04-28T04:28:51.489Z,0.93
2019-04-28T04:31:22.079Z,1.00
2019-04-28T04:33:53.326Z,1.10
2019-04-28T04:36:23.624Z,1.10
2019-04-28T04:38:54.896Z,0.90
2019-04-28T04:41:25.947Z,1.23
2019-04-28T04:43:57.650Z,1.50
2019-04-28T04:46:31.396Z,1.03
2019-04-28T04:49:01.754Z,1.23
2019-04-28T04:51:33.348Z,1.20
2019-04-28T04:54:04.345Z,0.83
2019-04-28T04:56:40.122Z,1.17
2019-04-28T04:59:11.639Z,1.03
2019-04-28T05:01:55.900Z,1.07
2019-04-28T05:04:41.481Z,0.93
2019-04-28T05:07:13.411Z,1.10
2019-04-28T05:09:44.452Z,1.30
2019-04-28T05:12:16.336Z,1.00
2019-04-28T05:14:49.438Z,1.10
2019-04-28T05:17:20.422Z,1.20
2019-04-28T05:19:51.809Z,1.13
2019-04-28T05:22:25.167Z,0.90
2019-04-28T05:25:06.381Z,1.30
2019-04-28T05:27:45.897Z,1.40
2019-04-28T05:30:22.828Z,1.13
2019-04-28T05:32:56.556Z,1.10
2019-04-28T05:35:29.445Z,1.37
2019-04-28T05:38:17.264Z,1.30
2019-04-28T05:40:49.819Z,1.03
2019-04-28T05:43:21.475Z,1.30
2019-04-28T05:45:52.811Z,1.23
2019-04-28T05:48:42.694Z,0.77
2019-04-28T05:51:16.794Z,1.50
2019-04-28T05:54:16.525Z,0.90
2019-04-28T05:57:10.999Z,1.37
2019-04-28T06:00:04.284Z,0.90
2019-04-28T06:02:39.712Z,1.00
2019-04-28T06:05:12.796Z,0.87
2019-04-28T06:08:00.039Z,0.80
2019-04-28T06:10:42.226Z,1.00
2019-04-28T06:13:13.573Z,0.90
2019-04-28T06:15:44.915Z,1.10
2019-04-28T06:18:16.584Z,1.00
2019-04-28T06:20:49.664Z,0.93
2019-04-28T06:23:24.549Z,1.00
2019-04-28T06:25:56.215Z,1.40
2019-04-28T06:28:29.210Z,1.60
2019-04-28T06:31:00.538Z,0.93
2019-04-28T06:33:32.228Z,0.93
2019-04-28T06:36:03.909Z,1.17
2019-04-28T06:38:35.263Z,0.90
2019-04-28T06:41:06.279Z,1.17
2019-04-28T06:43:37.748Z,0.87
2019-04-28T06:46:09.134Z,0.70
2019-04-28T06:48:40.215Z,0.90
2019-04-28T06:51:11.684Z,1.03
2019-04-28T06:53:42.575Z,1.07
2019-04-28T06:56:13.837Z,0.60
2019-04-28T06:58:44.877Z,0.90
2019-04-28T07:01:16.128Z,0.67
2019-04-28T07:03:46.769Z,0.80
2019-04-28T07:06:18.545Z,0.87
2019-04-28T07:08:49.862Z,1.00
2019-04-28T07:11:21.480Z,0.90
2019-04-28T07:13:53.168Z,1.00
2019-04-28T07:16:23.828Z,0.70
2019-04-28T07:18:55.182Z,0.80
2019-04-28T07:21:33.655Z,1.07
2019-04-28T07:24:12.971Z,0.70
2019-04-28T07:26:44.375Z,1.00
2019-04-28T07:29:15.699Z,0.93
2019-04-28T07:31:47.375Z,0.83
2019-04-28T07:34:18.829Z,0.87
2019-04-28T07:36:50.582Z,0.93
2019-04-28T07:39:22.133Z,0.70
2019-04-28T07:41:53.173Z,0.87
2019-04-28T07:44:23.827Z,0.63
2019-04-28T07:47:00.772Z,0.77
2019-04-28T07:49:32.242Z,0.70
2019-04-28T07:52:17.396Z,0.63
2019-04-28T07:54:50.330Z,0.60
2019-04-28T07:57:24.062Z,0.90
2019-04-28T07:59:55.242Z,0.80
2019-04-28T08:02:26.731Z,1.73
2019-04-28T08:04:58.432Z,0.73
2019-04-28T08:07:29.884Z,0.70
2019-04-28T08:10:01.143Z,0.60
2019-04-28T08:12:43.161Z,0.60
2019-04-28T08:15:14.392Z,0.90
2019-04-28T08:17:45.457Z,0.70
2019-04-28T08:20:16.791Z,0.60
2019-04-28T08:22:51.449Z,0.63
2019-04-28T08:25:23.056Z,0.80
2019-04-28T08:27:54.385Z,1.00
2019-04-28T08:30:25.705Z,0.90
2019-04-28T08:33:05.231Z,0.80
2019-04-28T08:35:35.855Z,0.70
2019-04-28T08:38:06.961Z,0.67
2019-04-28T08:40:38.176Z,0.90
2019-04-28T08:43:09.822Z,0.57
2019-04-28T08:45:40.805Z,1.00
2019-04-28T08:48:12.527Z,0.60
2019-04-28T08:50:43.731Z,0.70
2019-04-28T08:53:15.010Z,0.90
2019-04-28T08:55:46.092Z,1.10
2019-04-28T08:58:17.476Z,1.30
2019-04-28T09:00:48.876Z,1.10
2019-04-28T09:03:20.271Z,0.90
2019-04-28T09:05:51.648Z,1.10
2019-04-28T09:08:22.937Z,0.80
2019-04-28T09:10:54.194Z,1.37
2019-04-28T09:13:31.992Z,0.90
2019-04-28T09:16:03.654Z,0.97
2019-04-28T09:18:34.575Z,1.03
2019-04-28T09:21:06.480Z,1.10
2019-04-28T09:23:37.477Z,1.10
2019-04-28T09:26:08.777Z,1.20
2019-04-28T09:28:40.472Z,1.00
2019-04-28T09:31:12.136Z,1.20
2019-04-28T09:33:45.052Z,1.77
2019-04-28T09:36:16.647Z,1.63
2019-04-28T09:38:47.919Z,1.03
2019-04-28T09:41:18.961Z,0.90
2019-04-28T09:44:01.296Z,1.40
2019-04-28T09:46:38.046Z,1.10
2019-04-28T09:49:09.724Z,0.90
2019-04-28T09:51:41.355Z,1.20
2019-04-28T09:54:12.647Z,1.33
2019-04-28T09:56:56.029Z,1.33
2019-04-28T09:59:16.663Z,1.30
2019-04-28T10:01:48.446Z,0.93
2019-04-28T10:04:19.649Z,0.87
2019-04-28T10:06:51.610Z,0.83
2019-04-28T10:09:22.331Z,1.10
2019-04-28T10:11:53.673Z,0.97
2019-04-28T10:14:25.860Z,1.50
2019-04-28T10:16:56.918Z,1.17
2019-04-28T10:19:28.247Z,1.17
2019-04-28T10:21:59.321Z,1.20
2019-04-28T10:24:30.597Z,1.27
2019-04-28T10:27:01.814Z,1.10
2019-04-28T10:29:33.418Z,1.20
2019-04-28T10:32:05.019Z,1.23
2019-04-28T10:34:35.996Z,1.30
2019-04-28T10:37:06.871Z,1.40
2019-04-28T10:39:58.943Z,1.30
2019-04-28T10:42:29.950Z,1.13
2019-04-28T10:45:02.211Z,1.20
2019-04-28T10:47:33.881Z,1.60
2019-04-28T10:50:05.729Z,1.40
2019-04-28T10:52:43.628Z,1.20
2019-04-28T10:55:14.747Z,1.50
2019-04-28T10:57:46.320Z,1.47
2019-04-28T11:00:20.994Z,1.50
2019-04-28T11:02:52.752Z,1.77
2019-04-28T11:05:30.539Z,1.40
2019-04-28T11:08:04.248Z,1.40
2019-04-28T11:10:35.253Z,1.37
2019-04-28T11:13:06.498Z,1.43
2019-04-28T11:15:37.908Z,1.77
2019-04-28T11:18:10.425Z,1.60
2019-04-28T11:20:41.414Z,1.40
2019-04-28T11:23:12.688Z,1.20
2019-04-28T11:25:43.919Z,1.20
2019-04-28T11:28:15.540Z,0.80
2019-04-28T11:30:47.191Z,1.20
2019-04-28T11:33:40.404Z,1.50
2019-04-28T11:36:11.677Z,1.40
2019-04-28T11:38:42.611Z,1.10
2019-04-28T11:41:14.240Z,1.03
2019-04-28T11:43:45.316Z,1.50
2019-04-28T11:46:18.689Z,1.20
2019-04-28T11:48:50.026Z,1.50
2019-04-28T11:51:21.814Z,1.10
2019-04-28T11:53:52.838Z,1.10
2019-04-28T11:56:24.208Z,1.00
2019-04-28T11:58:55.268Z,1.10
2019-04-28T12:01:26.176Z,2.10
2019-04-28T12:04:00.168Z,1.07
2019-04-28T12:06:31.476Z,1.40
2019-04-28T12:09:17.853Z,1.20
2019-04-28T12:11:51.040Z,1.20
2019-04-28T12:14:33.676Z,1.30
2019-04-28T12:17:23.418Z,1.17
2019-04-28T12:20:13.834Z,1.00
2019-04-28T12:22:44.387Z,1.10
2019-04-28T12:25:15.586Z,1.10
2019-04-28T12:27:47.138Z,1.37
2019-04-28T12:30:18.510Z,1.30
2019-04-28T12:32:49.786Z,1.10
2019-04-28T12:35:20.502Z,1.00
2019-04-28T12:37:51.922Z,0.90
2019-04-28T12:40:23.667Z,1.00
2019-04-28T12:42:54.281Z,0.90
2019-04-28T12:45:34.779Z,0.90
2019-04-28T12:47:58.334Z,0.90
2019-04-28T12:50:33.732Z,0.95
2019-04-28T12:53:05.015Z,1.02
2019-04-28T12:55:36.755Z,0.98
2019-04-28T12:58:08.328Z,0.95
2019-04-28T13:01:01.008Z,1.27
2019-04-28T13:03:43.078Z,1.00
2019-04-28T13:06:16.063Z,1.00
2019-04-28T13:08:47.923Z,0.88
2019-04-28T13:11:19.580Z,1.10
2019-04-28T13:13:50.913Z,1.00
2019-04-28T13:16:22.963Z,1.43
2019-04-28T13:18:54.497Z,1.07
2019-04-28T13:21:26.179Z,1.20
2019-04-28T13:23:56.832Z,1.27
2019-04-28T13:26:27.466Z,1.40
2019-04-28T13:28:59.072Z,1.30
2019-04-28T13:31:29.973Z,1.43
2019-04-28T13:34:02.620Z,1.43
2019-04-28T13:36:34.274Z,1.27
2019-04-28T13:39:08.084Z,1.27
2019-04-28T13:41:39.431Z,1.20
2019-04-28T13:44:11.969Z,1.40
2019-04-28T13:46:42.977Z,1.03
2019-04-28T13:49:15.724Z,1.30
2019-04-28T13:51:46.697Z,1.40
2019-04-28T13:54:19.349Z,1.10
2019-04-28T13:56:50.390Z,1.20
2019-04-28T13:59:22.370Z,1.30
2019-04-28T14:02:13.281Z,1.20
2019-04-28T14:05:02.187Z,1.60
2019-04-28T14:07:33.687Z,1.63
2019-04-28T14:10:04.725Z,1.20
2019-04-28T14:12:36.378Z,1.33
2019-04-28T14:15:07.534Z,1.30
2019-04-28T14:17:38.873Z,1.37
2019-04-28T14:20:10.359Z,1.20
2019-04-28T14:22:42.236Z,1.10
2019-04-28T14:25:12.929Z,1.10
2019-04-28T14:27:43.645Z,1.70
2019-04-28T14:30:14.790Z,1.50
2019-04-28T14:32:45.593Z,1.13
2019-04-28T14:35:17.092Z,1.90
2019-04-28T14:37:47.927Z,1.60
2019-04-28T14:40:18.961Z,1.43
2019-04-28T14:42:50.483Z,0.83
2019-04-28T14:45:26.340Z,1.00
2019-04-28T14:47:58.743Z,0.93
2019-04-28T14:50:30.175Z,1.07
2019-04-28T14:53:01.437Z,1.00
2019-04-28T14:55:35.868Z,0.90
2019-04-28T14:58:07.540Z,1.00
2019-04-28T15:00:45.885Z,0.97
2019-04-28T15:03:19.191Z,0.90
2019-04-28T15:06:13.862Z,1.20
2019-04-28T15:08:59.190Z,0.80
2019-04-28T15:11:46.829Z,0.80
2019-04-28T15:14:18.619Z,0.90
2019-04-28T15:16:49.833Z,0.67
2019-04-28T15:19:22.609Z,1.00
2019-04-28T15:21:54.627Z,0.90
2019-04-28T15:24:26.307Z,0.80
2019-04-28T15:26:57.557Z,0.60
2019-04-28T15:29:29.308Z,0.73
2019-04-28T15:32:01.499Z,0.97
2019-04-28T15:34:32.742Z,0.77
2019-04-28T15:37:10.110Z,0.80
2019-04-28T15:39:36.770Z,0.60
2019-04-28T15:42:08.612Z,0.90
2019-04-28T15:44:39.770Z,0.80
2019-04-28T15:47:10.817Z,1.10
2019-04-28T15:49:42.037Z,0.80
2019-04-28T15:52:13.688Z,0.67
2019-04-28T15:54:45.191Z,1.13
2019-04-28T15:57:20.547Z,0.90
2019-04-28T15:59:51.869Z,1.27
2019-04-28T16:02:23.381Z,1.20
2019-04-28T16:04:55.187Z,1.13
2019-04-28T16:07:45.654Z,0.97
2019-04-28T16:10:17.518Z,1.10
2019-04-28T16:12:49.937Z,1.10
2019-04-28T16:15:24.541Z,1.10
2019-04-28T16:17:57.103Z,1.00
2019-04-28T16:20:29.797Z,1.10
2019-04-28T16:23:03.736Z,0.90
2019-04-28T16:25:38.766Z,0.90
2019-04-28T16:28:30.071Z,1.00
2019-04-28T16:31:01.068Z,0.70
2019-04-28T16:33:32.927Z,1.10
2019-04-28T16:36:04.761Z,1.20
2019-04-28T16:38:38.144Z,1.10
2019-04-28T16:41:15.427Z,1.13
2019-04-28T16:43:54.106Z,1.07
2019-04-28T16:46:37.130Z,1.00
2019-04-28T16:49:08.248Z,1.10
2019-04-28T16:51:39.410Z,1.23
2019-04-28T16:54:17.379Z,1.00
2019-04-28T16:57:07.694Z,1.10
2019-04-28T17:00:01.683Z,1.00
2019-04-28T17:02:35.083Z,1.20
2019-04-28T17:05:07.234Z,1.10
2019-04-28T17:07:51.536Z,0.90
2019-04-28T17:10:11.347Z,1.10
2019-04-28T17:12:42.381Z,1.10
2019-04-28T17:15:13.880Z,1.07
2019-04-28T17:18:08.115Z,1.10
2019-04-28T17:20:40.038Z,1.50
2019-04-28T17:23:11.732Z,1.60
2019-04-28T17:25:42.777Z,1.20
2019-04-28T17:28:14.405Z,1.40
2019-04-28T17:30:45.005Z,1.10
2019-04-28T17:33:16.603Z,1.33
2019-04-28T17:35:48.231Z,1.30
2019-04-28T17:38:20.047Z,1.17
2019-04-28T17:40:51.557Z,1.30
2019-04-28T17:43:23.140Z,1.00
2019-04-28T17:45:54.987Z,1.10
2019-04-28T17:48:31.659Z,1.20
2019-04-28T17:51:02.727Z,0.90
2019-04-28T17:53:34.425Z,0.73
2019-04-28T17:56:05.103Z,1.00
2019-04-28T17:58:36.550Z,1.30
2019-04-28T18:01:26.425Z,1.37
2019-04-28T18:04:18.760Z,1.10
2019-04-28T18:06:55.751Z,1.77
2019-04-28T18:09:29.414Z,1.43
2019-04-28T18:12:03.070Z,1.00
2019-04-28T18:14:34.499Z,1.47
2019-04-28T18:17:23.737Z,1.50
2019-04-28T18:19:55.474Z,1.47
2019-04-28T18:22:26.562Z,1.80
2019-04-28T18:24:58.419Z,1.50
2019-04-28T18:27:29.418Z,1.80
2019-04-28T18:30:12.687Z,1.40
2019-04-28T18:33:06.254Z,0.90
2019-04-28T18:35:49.316Z,1.80
2019-04-28T18:38:42.878Z,2.10
2019-04-28T18:41:36.429Z,2.13
2019-04-28T18:44:12.058Z,1.43
2019-04-28T18:46:43.813Z,1.40
2019-04-28T18:49:14.578Z,0.93
2019-04-28T18:52:19.203Z,1.30
2019-04-28T18:54:50.823Z,1.17
2019-04-28T18:57:22.082Z,1.20
2019-04-28T18:59:52.717Z,1.30
2019-04-28T19:02:30.482Z,1.10
2019-04-28T19:05:02.084Z,1.50
2019-04-28T19:07:50.666Z,1.07
2019-04-28T19:10:31.441Z,1.20
2019-04-28T19:13:24.288Z,1.87
2019-04-28T19:16:19.049Z,1.00
2019-04-28T19:18:51.532Z,1.00
2019-04-28T19:21:22.659Z,1.10
2019-04-28T19:23:54.266Z,1.20
2019-04-28T19:26:24.911Z,0.83
2019-04-28T19:28:56.205Z,1.37
2019-04-28T19:31:27.673Z,1.30
2019-04-28T19:33:59.249Z,0.93
2019-04-28T19:36:30.251Z,1.20
2019-04-28T19:39:03.362Z,1.10
2019-04-28T19:41:34.166Z,1.17
2019-04-28T19:44:05.540Z,1.23
2019-04-28T19:46:37.467Z,1.30
2019-04-28T19:49:09.235Z,1.20
2019-04-28T19:51:46.292Z,1.00
2019-04-28T19:54:25.586Z,1.30
2019-04-28T19:57:15.537Z,1.40
2019-04-28T20:03:35.222Z,1.00
2019-04-28T20:06:11.666Z,1.00
2019-04-28T20:08:46.448Z,1.30
2019-04-28T20:11:18.068Z,1.30
2019-04-28T20:13:50.272Z,1.47
2019-04-28T20:16:27.847Z,1.70
2019-04-28T20:18:59.518Z,1.40
2019-04-28T20:21:43.709Z,1.30
2019-04-28T20:24:29.705Z,1.30
2019-04-28T20:27:14.906Z,1.87
2019-04-28T20:29:46.387Z,1.30
2019-04-28T20:32:27.172Z,1.40
2019-04-28T20:34:59.544Z,1.07
2019-04-28T20:37:36.942Z,1.50
2019-04-28T20:40:15.799Z,1.20
2019-04-28T20:43:06.201Z,1.10
2019-04-28T20:45:43.371Z,1.23
2019-04-28T20:48:17.272Z,1.20
2019-04-28T20:50:52.601Z,1.20
2019-04-28T20:53:24.161Z,1.27
2019-04-28T20:56:03.846Z,1.63
2019-04-28T20:58:38.938Z,1.07
2019-04-28T21:01:10.930Z,1.33
2019-04-28T21:03:42.527Z,1.73
2019-04-28T21:06:15.867Z,1.20
2019-04-28T21:08:49.120Z,1.00
2019-04-28T21:11:23.220Z,1.50
2019-04-28T21:13:56.109Z,1.40
2019-04-28T21:16:28.014Z,1.47
2019-04-28T21:19:03.291Z,1.40
2019-04-28T21:21:36.588Z,1.43
2019-04-28T21:24:08.777Z,1.17
2019-04-28T21:26:42.734Z,1.43
2019-04-28T21:29:18.501Z,1.30
2019-04-28T21:31:59.773Z,1.13
2019-04-28T21:34:43.141Z,1.20
2019-04-28T21:37:50.007Z,1.30
2019-04-28T21:40:33.012Z,1.40
2019-04-28T21:43:40.147Z,1.40
2019-04-28T21:46:49.995Z,1.47
2019-04-28T21:49:26.044Z,1.70
2019-04-28T21:51:58.285Z,1.60
2019-04-28T21:54:30.028Z,1.70
2019-04-28T21:57:03.869Z,1.40
2019-04-28T21:59:44.998Z,1.37
2019-04-28T22:02:16.431Z,1.50
2019-04-28T22:04:48.383Z,1.60
2019-04-28T22:07:19.817Z,1.50
2019-04-28T22:09:51.869Z,1.57
2019-04-28T22:13:01.911Z,1.70
2019-04-28T22:15:41.452Z,1.60
2019-04-28T22:18:14.321Z,2.10
2019-04-28T22:20:56.559Z,1.50
2019-04-28T22:23:48.682Z,1.43
2019-04-28T22:26:44.452Z,1.60
2019-04-28T22:29:15.332Z,1.70
2019-04-28T22:31:46.788Z,1.40
2019-04-28T22:34:28.504Z,1.63
2019-04-28T22:36:59.295Z,1.77
2019-04-28T22:39:31.375Z,1.60
2019-04-28T22:42:03.254Z,1.50
2019-04-28T22:44:35.194Z,1.90
2019-04-28T22:47:14.227Z,1.83
2019-04-28T22:49:45.779Z,1.60
2019-04-28T22:52:20.617Z,1.77
2019-04-28T22:55:10.328Z,1.70
2019-04-28T22:58:04.528Z,2.37
2019-04-28T23:00:54.746Z,3.43
2019-04-28T23:04:01.754Z,3.53
2019-04-28T23:06:33.394Z,2.80
2019-04-28T23:09:07.855Z,1.53
2019-04-28T23:11:39.235Z,2.20
2019-04-28T23:14:19.914Z,2.30
2019-04-28T23:16:58.969Z,2.47
2019-04-28T23:19:32.759Z,2.37
2019-04-28T23:22:12.520Z,2.23
2019-04-28T23:24:43.893Z,1.73
2019-04-28T23:27:15.113Z,1.73
2019-04-28T23:29:46.586Z,2.20
2019-04-28T23:32:18.324Z,2.77
2019-04-28T23:35:10.439Z,2.83
2019-04-28T23:37:41.686Z,2.53
2019-04-28T23:40:14.486Z,2.37
2019-04-28T23:42:52.219Z,1.70
2019-04-28T23:45:23.790Z,1.70
2019-04-28T23:47:55.771Z,1.53
2019-04-28T23:50:33.907Z,1.73
2019-04-28T23:53:09.062Z,1.50
2019-04-28T23:55:40.873Z,1.70
2019-04-28T23:58:12.747Z,1.70
